Motte Rimrock Reserve, California Weather observations

Data are for 10 minute period ending at time listed.
 Day   Time   Solar   Ave.   Ave.  Ave.  Vector  Max.   Baro.   Total    
  of    of     Rad.   Air    Rel.  Wind   Wind   Wind  Press.  Precip.   
Year   Day            Temp.  Hum.  Speed  Dir.   Gust                    
2016   (PST)  Kw/m2    F      %     mph   deg.    mph    mb.     in.     
-------------------------------------------------------------------------
 344   16:00   0.07   60.9    50    6.3   329     7.5   953.2    0.00 
 344   16:10   0.06   60.2    52    7.0   348     9.0   953.1    0.00 
 344   16:20   0.04   58.9    55    7.8   348     9.5   953.0    0.00 
 344   16:30   0.02   58.2    56    8.7   339    10.4   952.8    0.00 
 344   16:40   0.00   57.5    58    6.6   344     8.8   952.7    0.00 
 344   16:50   0.00   56.9    59    7.6   330     8.8   952.7    0.00 
 344   17:00   0.00   56.3    60    7.9   324    10.0   952.7    0.00 
 344   17:10   0.00   55.9    62    8.3   319    10.3   952.7    0.00 
 344   17:20   0.00   55.5    63    8.9   316    10.2   952.6    0.00 
 344   17:30   0.00   55.2    64    8.3   316    10.2   952.5    0.00 
 344   17:40   0.00   55.2    64    7.7   319     9.8   952.5    0.00 
 344   17:50   0.00   54.8    64    7.6   319     8.9   952.5    0.00 
 344   18:00   0.00   55.3    64    8.6   310    10.2   952.5    0.00 
 344   18:10   0.00   55.3    64    7.2   313     8.5   952.6    0.00 
 344   18:20   0.00   54.9    65    6.5   312     7.5   952.6    0.00 
 344   18:30   0.00   54.6    66    5.7   310     6.8   952.6    0.00 
 344   18:40   0.00   54.8    66    5.3   313     6.1   952.5    0.00 
 344   18:50   0.00   54.7    66    6.1   319     7.1   952.5    0.00 
 344   19:00   0.00   54.4    66    7.3   325     8.5   952.6    0.00 
 344   19:10   0.00   54.1    67    7.7   320     8.4   952.7    0.00 
 344   19:20   0.00   53.8    68    6.6   314     8.0   952.8    0.00 
 344   19:30   0.00   54.3    67    5.2   317     6.8   952.8    0.00 
 344   19:40   0.00   54.5    67    4.9   323     6.1   952.8    0.00 
 344   19:50   0.00   54.3    68    6.0   318     7.3   952.9    0.00 
 344   20:00   0.00   53.7    69    7.6   322     8.4   953.0    0.00 
 344   20:10   0.00   53.1    71    7.4   315     8.3   953.1    0.00 
 344   20:20   0.00   53.2    71    5.7   322     7.5   952.9    0.00 
 344   20:30   0.00   54.0    70    4.2   316     4.6   952.9    0.00 
 344   20:40   0.00   54.4    68    3.3   312     4.7   952.8    0.00 
 344   20:50   0.00   54.6    68    3.2   324     3.9   952.8    0.00 
 344   21:00   0.00   54.4    68    2.8   337     4.1   952.9    0.00 
 344   21:10   0.00   54.4    68    3.1   331     4.0   953.0    0.00 
 344   21:20   0.00   53.7    70    4.2   319     4.7   953.1    0.00 
 344   21:30   0.00   53.5    70    4.7   333     6.1   953.2    0.00 
 344   21:40   0.00   53.6    71    4.6   334     5.3   953.3    0.00 
 344   21:50   0.00   53.0    72    5.6   346     6.9   953.4    0.00 
 344   22:00   0.00   53.1    73    3.9   335     5.3   953.3    0.00 
 344   22:10   0.00   52.4    75    2.4   273     3.3   953.3    0.00 
 344   22:20   0.00   52.2    74    1.1   279     2.5   953.3    0.00 
 344   22:30   0.00   52.6    74    1.2   281     2.9   953.4    0.00 
 344   22:40   0.00   53.0    73    0.3   282     1.2   953.3    0.00 
 344   22:50   0.00   52.9    73    1.8   264     2.3   953.3    0.00 
 344   23:00   0.00   52.5    72    2.3   268     2.9   953.4    0.00 
 344   23:10   0.00   52.3    72    3.3   286     4.0   953.5    0.00 
 344   23:20   0.00   52.2    73    4.7   308     6.0   953.5    0.00 
 344   23:30   0.00   51.2    77    5.9   314     6.5   953.4    0.00 
 344   23:40   0.00   51.6    77    4.5   342     5.6   953.2    0.00 
 344   23:50   0.00   52.6    76    5.2    26     6.2   953.0    0.00 
 345    0:00   0.00   51.4    77    3.1     2     4.7   953.0    0.00 
 345    0:10   0.00   51.9    78    3.0   352     3.8   952.9    0.00 
 345    0:20   0.00   51.4    78    3.4   307     4.2   953.0    0.00 
 345    0:30   0.00   51.3    79    3.9   319     4.3   952.9    0.00 
 345    0:40   0.00   51.9    79    3.3   336     3.7   952.9    0.00 
 345    0:50   0.00   52.4    76    3.4     9     4.9   952.9    0.00 
 345    1:00   0.00   51.8    78    2.1    17     3.0   952.9    0.00 
 345    1:10   0.00   51.5    80    3.5   353     4.2   952.9    0.00 
 345    1:20   0.00   51.0    82    4.1   335     5.0   952.9    0.00 
 345    1:30   0.00   51.4    82    2.7   357     3.6   952.8    0.00 
 345    1:40   0.00   51.0    81    3.7    54     4.0   952.6    0.00 
 345    1:50   0.00   50.2    83    2.4    52     3.6   952.6    0.00 
 345    2:00   0.00   50.1    83    1.1    64     2.3   952.5    0.00 
 345    2:10   0.00   49.6    84    0.3    71     1.1   952.4    0.00 
 345    2:20   0.00   49.1    84    2.1   150     3.7   952.2    0.00 
 345    2:30   0.00   48.4    84    3.8   130     4.7   952.1    0.00 
 345    2:40   0.00   47.9    85    3.4   172     4.1   952.1    0.00 
 345    2:50   0.00   47.3    85    3.0   179     4.1   952.0    0.00 
 345    3:00   0.00   47.1    86    1.8   179     2.4   951.9    0.00 
 345    3:10   0.00   47.1    85    1.0   161     2.2   951.8    0.00 
 345    3:20   0.00   47.5    84    2.6   155     4.4   951.7    0.00 
 345    3:30   0.00   47.4    84    3.7   187     6.1   951.6    0.00 
 345    3:40   0.00   46.6    86    4.7   238     6.1   951.6    0.00 
 345    3:50   0.00   47.4    85    1.4   251     1.9   951.8    0.00 
 345    4:00   0.00   48.4    83    2.2   257     3.1   951.8    0.00 
 345    4:10   0.00   49.4    83    0.5   256     2.0   951.8    0.00 
 345    4:20   0.00   50.1    81    0.8   255     1.1   951.9    0.00 
 345    4:30   0.00   50.3    79    0.3   254     1.0   951.9    0.00 
 345    4:40   0.00   50.5    79    1.0   204     1.7   951.9    0.00 
 345    4:50   0.00   50.9    78    1.1   200     2.3   952.0    0.00 
 345    5:00   0.00   51.0    77    1.5   233     2.4   952.0    0.00 
 345    5:10   0.00   50.6    78    1.5    49     5.2   952.0    0.00 
 345    5:20   0.00   48.8    81    4.3    56     5.8   951.9    0.00 
 345    5:30   0.00   48.3    81    5.3    56     6.3   951.9    0.00 
 345    5:40   0.00   48.2    81    4.8    64     5.6   951.8    0.00 
 345    5:50   0.00   49.0    80    3.1    85     4.5   951.8    0.00 
 345    6:00   0.00   49.2    80    2.4   137     3.3   951.7    0.00 
 345    6:10   0.00   46.7    84    1.3   162     2.0   951.7    0.00 
 345    6:20   0.00   46.3    86    0.5   162     1.7   951.8    0.00 
 345    6:30   0.00   46.7    86    0.5   147     1.5   951.9    0.00 
 345    6:40   0.00   47.5    84    0.0   146     0.5   952.0    0.00 
 345    6:50   0.00   46.7    85    0.5   168     1.2   952.0    0.00 
 345    7:00   0.01   47.4    86    0.2   242     2.0   952.0    0.00 
 345    7:10   0.03   49.2    82    1.4   259     3.1   952.1    0.00 
 345    7:20   0.05   48.1    83    1.8    48     4.2   952.1    0.00 
 345    7:30   0.07   49.0    83    0.8   306     2.1   952.4    0.00 
 345    7:40   0.10   51.3    78    0.9   287     2.2   952.6    0.00 
 345    7:50   0.13   54.0    72    0.8   270     1.8   952.6    0.00 
 345    8:00   0.16   55.0    70    0.4   260     0.9   952.7    0.00 
 345    8:10   0.14   53.9    72    0.9    42     2.8   952.8    0.00 
 345    8:20   0.13   50.8    78    1.9    66     3.1   952.9    0.00 
 345    8:30   0.17   50.9    80    2.7   102     3.4   952.9    0.00 
 345    8:40   0.19   53.1    75    2.3   129     3.4   952.9    0.00 
 345    8:50   0.21   54.3    72    0.6   186     3.0   953.2    0.00 
 345    9:00   0.24   54.5    72    2.0   194     3.5   953.3    0.00 
 345    9:10   0.30   54.9    72    1.7   183     3.1   953.5    0.00 
 345    9:20   0.35   55.9    70    2.0   223     4.5   953.7    0.00 
 345    9:30   0.37   56.0    70    2.2   198     4.8   953.8    0.00 
 345    9:40   0.39   56.3    69    2.7   167     5.8   953.8    0.00 
 345    9:50   0.37   56.3    68    4.2   137     7.3   953.8    0.00 
 345   10:00   0.43   56.6    66    4.8   134     7.9   954.0    0.00 
 345   10:10   0.45   56.5    66    5.3   135     7.3   953.9    0.00 
 345   10:20   0.47   56.8    66    5.6   130     8.6   953.7    0.00 
 345   10:30   0.48   57.2    65    5.8   134     8.2   953.6    0.00 
 345   10:40   0.49   57.8    64    5.2   139     7.5   953.5    0.00 
 345   10:50   0.50   57.7    65    4.0   178     7.5   953.4    0.00 
 345   11:00   0.51   58.7    63    2.5   186     5.5   953.2    0.00 
 345   11:10   0.50   59.3    62    3.9   174     6.8   953.0    0.00 
 345   11:20   0.52   59.8    61    3.8   208     7.0   953.2    0.00 
 345   11:30   0.52   60.4    60    3.9   205     6.5   953.1    0.00 
 345   11:40   0.52   61.0    58    3.6   182     6.1   952.8    0.00 
 345   11:50   0.53   62.6    55    2.8   208     7.5   952.7    0.00 
 345   12:00   0.53   62.7    54    2.3   221     5.5   952.6    0.00 
 345   12:10   0.51   63.3    54    2.8   285     5.0   952.5    0.00 
 345   12:20   0.50   64.3    52    2.6   262     5.6   952.6    0.00 
 345   12:30   0.48   65.2    50    1.9   285     4.5   952.4    0.00 
 345   12:40   0.47   64.0    54    6.3   296    11.2   952.3    0.00 
 345   12:50   0.46   63.4    56    7.6   307    11.4   952.1    0.00 
 345   13:00   0.44   63.0    56    6.4   310     9.3   952.0    0.00 
 345   13:10   0.41   63.7    55    5.6   314     8.6   951.8    0.00 
 345   13:20   0.38   63.3    56    4.8   298     8.5   951.6    0.00 
 345   13:30   0.35   63.3    55    5.1   311     8.5   951.6    0.00 
 345   13:40   0.40   63.2    55    7.5   321    10.4   951.7    0.00 
 345   13:50   0.37   63.2    55    8.5   309    11.3   951.6    0.00 
 345   14:00   0.37   63.2    55    7.5   316    10.0   951.5    0.00 
 345   14:10   0.33   63.0    55    8.0   313    11.0   951.4    0.00 
 345   14:20   0.27   62.4    56    8.7   313    11.1   951.3    0.00 
 345   14:30   0.28   62.5    57    9.5   303    12.9   951.2    0.00 
 345   14:40   0.27   62.5    57    9.5   307    13.4   951.2    0.00 
 345   14:50   0.24   62.3    58    9.4   309    13.3   951.3    0.00 
 345   15:00   0.23   62.1    59   10.2   300    12.9   951.3    0.00 
 345   15:10   0.21   61.8    60   10.0   308    12.1   951.2    0.00 
 345   15:20   0.15   61.5    61    9.7   312    12.9   951.2    0.00 
 345   15:30   0.10   60.7    62    9.2   308    11.6   951.0    0.00 
 345   15:40   0.12   60.8    63    8.7   309    11.2   950.8    0.00 
 345   15:50   0.10   60.5    64    8.2   307    10.2   950.8    0.00 

Return to Motte Rimrock Reserve graphs page.


Western Regional Climate Center,wrcc@dri.edu